Terminal Aerodrome Forecast
Issued by NWS Norman, OK

Home | Current Version | Previous Version | Text Only | Print | Product List | Glossary On
Versions: 1 2 3 4 5 6 7 8 9 10 11 12 13 14 15
000
FTUS44 KOUN 211340 AAA
TAFOKC
TAF AMD
KOKC 211340Z 2114/2212 17005KT P6SM -RA OVC012
      TEMPO 2114/2117 4SM -RA BR BKN007 OVC012
     FM211800 35008KT P6SM BKN025
     FM212100 36010KT P6SM SCT035=

USA.gov is the U.S. government's official web portal to all federal, state and local government web resources and services.